Time;durP1;ratioP1;P1;durP2;ratioP2;P2;SDS_P1;SDS_P2;PMS_P1;PMS_P2;Temp;Humidity;BMP_temperature;BMP_pressure;BME280_temperature;BME280_humidity;BME280_pressure;Samples;Min_cycle;Max_cycle;Signal;HPM_P1;HPM_P2
2024/01/23 00:02:11;;;;;;;17.10;4.65;;;;;;;7.97;100.00;101527.03;5050819;28;20128;-67
2024/01/23 00:04:59;;;;;;;21.70;5.53;;;;;;;7.93;100.00;101535.88;5051597;28;20049;-67
2024/01/23 00:07:48;;;;;;;19.52;5.05;;;;;;;7.91;100.00;101568.66;5009053;28;20045;-67
2024/01/23 00:10:36;;;;;;;20.67;4.85;;;;;;;7.96;100.00;101557.97;5057186;28;20472;-66
2024/01/23 00:13:24;;;;;;;19.23;5.13;;;;;;;7.94;100.00;101580.94;5075176;28;20510;-66
2024/01/23 00:16:12;;;;;;;15.20;4.38;;;;;;;7.95;100.00;101567.16;5072477;28;20501;-67
2024/01/23 00:19:00;;;;;;;23.75;5.93;;;;;;;7.96;100.00;101563.38;5073937;28;20366;-67
2024/01/23 00:21:48;;;;;;;16.27;4.00;;;;;;;7.97;100.00;101570.47;5058596;28;20049;-66
2024/01/23 00:24:36;;;;;;;20.63;4.85;;;;;;;7.98;100.00;101582.94;5058906;28;20044;-67
2024/01/23 00:27:25;;;;;;;19.33;4.95;;;;;;;7.98;100.00;101582.13;5040427;28;20179;-66
2024/01/23 00:30:13;;;;;;;18.75;4.68;;;;;;;7.93;100.00;101596.38;5068795;28;20532;-67
2024/01/23 00:33:02;;;;;;;17.92;5.50;;;;;;;7.93;100.00;101590.97;5074642;28;20492;-66
2024/01/23 00:35:50;;;;;;;20.15;5.03;;;;;;;7.96;100.00;101612.22;5043485;28;20056;-67
2024/01/23 00:38:39;;;;;;;21.50;5.40;;;;;;;7.95;100.00;101605.13;5074839;28;20045;-67
2024/01/23 00:41:27;;;;;;;20.52;5.00;;;;;;;7.92;100.00;101611.03;5074673;28;20131;-66
2024/01/23 00:44:15;;;;;;;21.33;5.15;;;;;;;7.93;100.00;101611.84;5075119;28;20095;-66
2024/01/23 00:47:03;;;;;;;16.90;4.70;;;;;;;7.89;100.00;101598.75;5072276;28;20047;-66
2024/01/23 00:49:51;;;;;;;17.23;4.80;;;;;;;7.88;100.00;101629.66;5074957;28;20049;-67
2024/01/23 00:52:39;;;;;;;20.45;5.75;;;;;;;7.87;100.00;101629.91;5060120;28;20048;-67
2024/01/23 00:55:27;;;;;;;21.85;5.18;;;;;;;7.90;100.00;101634.84;5074920;28;20401;-67
2024/01/23 00:58:15;;;;;;;19.95;5.28;;;;;;;7.88;100.00;101636.97;5057834;28;20133;-67
2024/01/23 01:01:03;;;;;;;19.42;5.07;;;;;;;7.88;100.00;101642.38;5074356;28;20128;-67
2024/01/23 01:03:54;;;;;;;22.60;5.70;;;;;;;7.85;100.00;101664.56;5074292;28;20493;-65
2024/01/23 01:06:43;;;;;;;21.10;5.38;;;;;;;7.83;100.00;101672.91;5077870;28;20048;-66
2024/01/23 01:09:31;;;;;;;15.70;4.32;;;;;;;7.84;100.00;101662.88;5037966;28;20408;-66
2024/01/23 01:12:19;;;;;;;24.40;5.85;;;;;;;7.85;100.00;101661.84;5060872;28;20094;-67
2024/01/23 01:15:08;;;;;;;22.83;6.15;;;;;;;7.81;100.00;101669.59;5074851;28;20150;-66
2024/01/23 01:17:56;;;;;;;17.80;4.57;;;;;;;7.88;100.00;101674.94;5058900;28;20137;-66
2024/01/23 01:20:44;;;;;;;23.77;5.22;;;;;;;7.81;100.00;101679.63;5073446;28;20481;-66
2024/01/23 01:23:32;;;;;;;20.52;5.03;;;;;;;7.74;100.00;101684.31;5045742;28;20499;-66
2024/01/23 01:26:20;;;;;;;21.52;5.35;;;;;;;7.75;100.00;101696.84;5074799;28;20173;-66
2024/01/23 01:29:08;;;;;;;22.33;6.00;;;;;;;7.69;100.00;101699.38;5057359;28;20064;-67
2024/01/23 01:31:56;;;;;;;24.42;6.40;;;;;;;7.69;100.00;101693.94;5060061;28;20048;-67
2024/01/23 01:34:45;;;;;;;24.23;5.85;;;;;;;7.67;100.00;101717.78;5059260;28;20044;-67
2024/01/23 01:37:33;;;;;;;20.08;5.10;;;;;;;7.64;100.00;101712.78;5074539;28;20448;-66
2024/01/23 01:40:22;;;;;;;19.80;5.68;;;;;;;7.61;100.00;101723.28;5039740;28;20069;-67
2024/01/23 01:43:25;;;;;;;20.40;4.97;;;;;;;7.60;100.00;101722.47;5055690;28;20091;-67
2024/01/23 01:46:24;;;;;;;20.98;5.25;;;;;;;7.56;100.00;101721.25;5058966;28;20049;-67
2024/01/23 01:49:12;;;;;;;17.40;5.00;;;;;;;7.55;100.00;101718.75;5058714;28;20044;-66
2024/01/23 01:52:01;;;;;;;19.40;5.18;;;;;;;7.52;100.00;101694.81;5070671;28;20060;-68
2024/01/23 01:54:49;;;;;;;17.92;5.68;;;;;;;7.50;100.00;101724.84;5060977;28;20068;-67
2024/01/23 01:57:38;;;;;;;20.60;5.35;;;;;;;7.50;100.00;101738.41;5073868;28;20040;-67
2024/01/23 02:00:26;;;;;;;22.25;5.10;;;;;;;7.49;100.00;101741.34;5057471;28;20060;-66
2024/01/23 02:03:14;;;;;;;24.55;5.72;;;;;;;7.47;100.00;101755.94;5058280;28;20048;-67
2024/01/23 02:06:03;;;;;;;18.85;4.82;;;;;;;7.49;100.00;101758.44;5058835;28;20052;-67
2024/01/23 02:08:52;;;;;;;25.02;6.10;;;;;;;7.48;100.00;101770.38;5059154;28;20389;-66
2024/01/23 02:12:00;;;;;;;20.60;5.35;;;;;;;7.50;100.00;101765.50;5071441;28;20413;-68
2024/01/23 02:14:51;;;;;;;17.65;5.50;;;;;;;7.46;100.00;101780.59;5058712;28;20048;-66
2024/01/23 02:17:39;;;;;;;20.90;5.07;;;;;;;7.46;100.00;101789.56;5051508;28;20041;-66
2024/01/23 02:20:27;;;;;;;19.65;4.88;;;;;;;7.47;100.00;101776.81;5052600;28;20045;-66
2024/01/23 02:23:16;;;;;;;25.10;5.40;;;;;;;7.44;100.00;101793.53;5038069;28;20087;-67
2024/01/23 02:26:04;;;;;;;19.95;5.15;;;;;;;7.49;100.00;101801.84;5061636;28;20040;-67
2024/01/23 02:28:52;;;;;;;23.83;5.47;;;;;;;7.43;100.00;101794.59;5071183;28;20552;-67
2024/01/23 02:31:40;;;;;;;21.35;5.35;;;;;;;7.39;100.00;101817.78;5060113;28;20173;-66
2024/01/23 02:34:27;;;;;;;20.55;5.10;;;;;;;7.35;100.00;101822.00;5071103;28;20055;-66
2024/01/23 02:37:16;;;;;;;23.77;5.30;;;;;;;7.34;100.00;101814.91;5057712;28;20086;-68
2024/01/23 02:40:05;;;;;;;18.23;5.07;;;;;;;7.41;100.00;101829.25;5069514;28;20041;-67
2024/01/23 02:42:53;;;;;;;18.73;5.47;;;;;;;7.37;100.00;101820.72;5077182;28;20044;-67
2024/01/23 02:45:41;;;;;;;20.10;5.20;;;;;;;7.35;100.00;101824.69;5048787;28;20523;-66
2024/01/23 02:48:30;;;;;;;25.27;6.05;;;;;;;7.31;100.00;101843.31;5039654;28;20041;-66
2024/01/23 02:51:19;;;;;;;18.50;4.97;;;;;;;7.33;100.00;101851.19;5067055;28;20055;-67
2024/01/23 02:54:07;;;;;;;18.23;4.47;;;;;;;7.32;100.00;101857.69;5091655;28;20055;-66
2024/01/23 02:56:56;;;;;;;21.60;5.28;;;;;;;7.33;100.00;101856.63;5060685;28;20109;-67
2024/01/23 02:59:44;;;;;;;18.40;5.05;;;;;;;7.34;100.00;101856.41;5057803;28;20138;-66
2024/01/23 03:02:32;;;;;;;20.30;4.80;;;;;;;7.32;100.00;101863.94;5070728;28;20052;-66
2024/01/23 03:05:20;;;;;;;21.92;5.32;;;;;;;7.34;100.00;101877.28;5071473;28;20044;-66
2024/01/23 03:08:08;;;;;;;18.67;5.13;;;;;;;7.32;100.00;101877.47;5051174;28;20041;-67
2024/01/23 03:10:56;;;;;;;18.63;4.93;;;;;;;7.31;100.00;101869.56;5039307;28;20059;-67
2024/01/23 03:13:44;;;;;;;19.88;5.28;;;;;;;7.30;100.00;101892.31;5049306;28;20047;-66
2024/01/23 03:16:33;;;;;;;26.05;6.10;;;;;;;7.27;100.00;101895.47;5072227;28;20178;-66
2024/01/23 03:19:20;;;;;;;21.25;5.63;;;;;;;7.23;100.00;101898.59;5057719;28;20141;-66
2024/01/23 03:22:09;;;;;;;19.65;5.00;;;;;;;7.28;100.00;101905.25;5030446;28;20037;-67
2024/01/23 03:24:57;;;;;;;21.65;4.63;;;;;;;7.24;100.00;101894.03;5050354;28;20046;-67
2024/01/23 03:27:45;;;;;;;20.52;5.38;;;;;;;7.23;100.00;101901.31;5080143;28;20137;-66
2024/01/23 03:30:33;;;;;;;22.58;5.80;;;;;;;7.20;100.00;101888.19;5072940;28;20048;-66
2024/01/23 03:33:21;;;;;;;22.40;5.80;;;;;;;7.23;100.00;101895.88;5057241;28;20053;-66
2024/01/23 03:36:09;;;;;;;24.67;5.50;;;;;;;7.21;100.00;101897.97;5056201;28;20122;-66
2024/01/23 03:38:57;;;;;;;17.67;5.68;;;;;;;7.18;100.00;101903.84;5058188;28;20036;-66
2024/01/23 03:41:46;;;;;;;24.10;5.22;;;;;;;7.17;100.00;101926.59;5072819;28;20036;-67
2024/01/23 03:44:34;;;;;;;23.95;5.72;;;;;;;7.14;100.00;101927.00;5058558;28;20132;-66
2024/01/23 03:47:22;;;;;;;20.10;5.82;;;;;;;7.11;100.00;101932.03;5074346;28;20055;-66
2024/01/23 03:50:10;;;;;;;20.95;5.47;;;;;;;7.10;100.00;101944.78;5076361;28;20190;-66
2024/01/23 03:52:58;;;;;;;22.90;5.03;;;;;;;7.09;100.00;101958.53;5035470;28;20052;-66
2024/01/23 03:55:46;;;;;;;22.90;5.65;;;;;;;7.12;100.00;101952.66;5061161;28;20044;-66
2024/01/23 03:58:34;;;;;;;21.20;5.18;;;;;;;7.09;100.00;101967.47;5077664;28;20053;-67
2024/01/23 04:01:22;;;;;;;23.20;5.65;;;;;;;7.09;100.00;101964.78;5054777;28;20084;-68
2024/01/23 04:04:10;;;;;;;20.05;5.57;;;;;;;7.10;100.00;101965.63;5066422;28;20056;-67
2024/01/23 04:06:58;;;;;;;26.55;5.63;;;;;;;7.06;100.00;101975.22;5066239;28;20041;-66
2024/01/23 04:09:46;;;;;;;22.67;5.40;;;;;;;7.06;100.00;101980.66;5061652;28;20386;-66
2024/01/23 04:12:35;;;;;;;21.88;5.70;;;;;;;7.05;100.00;101968.97;5049651;28;20041;-65
2024/01/23 04:15:23;;;;;;;21.38;5.68;;;;;;;7.06;100.00;101981.47;5069196;28;20051;-64
2024/01/23 04:18:11;;;;;;;20.02;5.38;;;;;;;7.05;100.00;101990.66;5061952;28;20539;-66
2024/01/23 04:21:00;;;;;;;21.23;5.55;;;;;;;7.03;100.00;101988.16;5062556;28;20483;-67
2024/01/23 04:23:47;;;;;;;26.63;5.78;;;;;;;7.02;100.00;101996.50;5074530;28;20116;-67
2024/01/23 04:26:37;;;;;;;26.73;5.50;;;;;;;7.03;100.00;102009.84;5075281;28;20133;-66
2024/01/23 04:29:28;;;;;;;21.35;6.30;;;;;;;7.00;100.00;102010.28;5046536;28;20087;-66
2024/01/23 04:32:19;;;;;;;22.20;5.90;;;;;;;7.04;100.00;102019.63;5076103;28;20420;-66
2024/01/23 04:35:07;;;;;;;24.15;5.97;;;;;;;7.03;100.00;102027.97;5052297;28;20517;-66
2024/01/23 04:37:55;;;;;;;20.55;5.55;;;;;;;7.00;100.00;102031.13;5038652;28;20091;-66
2024/01/23 04:40:44;;;;;;;21.10;5.50;;;;;;;6.97;100.00;102036.94;5059786;28;20359;-68
2024/01/23 04:43:33;;;;;;;20.48;5.60;;;;;;;6.93;100.00;102035.72;5041522;28;20191;-67
2024/01/23 04:46:21;;;;;;;24.15;5.75;;;;;;;6.91;100.00;102045.94;5054212;28;20040;-67
2024/01/23 04:49:09;;;;;;;18.85;5.10;;;;;;;6.90;100.00;102050.50;5054233;28;20114;-67
2024/01/23 04:51:57;;;;;;;19.77;4.78;;;;;;;6.88;100.00;102060.75;5054324;28;20096;-66
2024/01/23 04:54:45;;;;;;;18.95;5.28;;;;;;;6.86;100.00;102056.59;5062805;28;20119;-66
2024/01/23 04:57:33;;;;;;;19.67;5.70;;;;;;;6.86;100.00;102062.00;5053287;28;20501;-68
2024/01/23 05:00:21;;;;;;;25.02;6.03;;;;;;;6.86;100.00;102067.44;5020498;28;20144;-67
2024/01/23 05:03:10;;;;;;;25.58;5.22;;;;;;;6.83;100.00;102074.94;5034926;28;20045;-66
2024/01/23 05:05:59;;;;;;;22.65;5.28;;;;;;;6.85;100.00;102077.41;5066498;28;20501;-66
2024/01/23 05:08:47;;;;;;;18.60;4.85;;;;;;;6.82;100.00;102089.50;5054281;28;20401;-66
2024/01/23 05:11:36;;;;;;;22.83;5.30;;;;;;;6.82;100.00;102094.09;5052904;28;20417;-67
2024/01/23 05:14:25;;;;;;;25.83;5.60;;;;;;;6.81;100.00;102098.69;5019190;28;20128;-68
2024/01/23 05:17:13;;;;;;;24.60;6.43;;;;;;;6.81;100.00;102117.66;5009355;28;20104;-66
2024/01/23 05:20:04;;;;;;;20.50;5.13;;;;;;;6.81;100.00;102120.38;5034231;28;20049;-67
2024/01/23 05:22:52;;;;;;;17.77;4.95;;;;;;;6.79;100.00;102122.44;5032253;28;20487;-67
2024/01/23 05:25:42;;;;;;;18.98;5.03;;;;;;;6.79;100.00;102122.44;5036492;28;20056;-67
2024/01/23 05:28:30;;;;;;;17.00;4.97;;;;;;;6.76;100.00;102119.34;5050969;28;20342;-66
2024/01/23 05:31:18;;;;;;;24.58;5.38;;;;;;;6.78;100.00;102125.34;5053118;28;20084;-66
2024/01/23 05:34:06;;;;;;;17.02;5.05;;;;;;;6.76;100.00;102143.72;5039594;28;20045;-66
2024/01/23 05:36:54;;;;;;;18.00;5.50;;;;;;;6.77;100.00;102153.50;5038868;28;20097;-66
2024/01/23 05:39:42;;;;;;;21.35;4.97;;;;;;;6.75;100.00;102159.13;5053148;28;20206;-66
2024/01/23 05:42:31;;;;;;;21.60;5.05;;;;;;;6.71;100.00;102168.72;5025401;28;20717;-67
2024/01/23 05:45:19;;;;;;;18.50;5.57;;;;;;;6.74;100.00;102173.72;5026940;28;20051;-67
2024/01/23 05:48:07;;;;;;;20.98;5.20;;;;;;;6.74;100.00;102183.72;5021233;28;20037;-68
2024/01/23 05:50:55;;;;;;;24.63;5.60;;;;;;;6.73;100.00;102179.31;5024393;28;20460;-67
2024/01/23 05:53:43;;;;;;;21.67;5.07;;;;;;;6.72;100.00;102181.22;5041131;28;20076;-67
2024/01/23 05:56:32;;;;;;;19.95;5.10;;;;;;;6.72;100.00;102192.03;5042246;28;20059;-66
2024/01/23 05:59:20;;;;;;;23.52;6.00;;;;;;;6.69;100.00;102186.22;5038608;28;20044;-66
2024/01/23 06:02:12;;;;;;;25.77;6.10;;;;;;;6.61;100.00;102203.50;5021519;28;1109918;-68
2024/01/23 06:05:00;;;;;;;28.40;6.10;;;;;;;6.59;100.00;102197.44;5075132;28;20049;-67
2024/01/23 06:07:51;;;;;;;21.08;5.43;;;;;;;6.58;100.00;102206.63;5081915;28;20048;-67
2024/01/23 06:10:39;;;;;;;22.23;6.43;;;;;;;6.57;100.00;102194.13;5064367;28;20063;-67
2024/01/23 06:13:27;;;;;;;21.00;5.28;;;;;;;6.58;100.00;102193.09;5074610;28;20044;-68
2024/01/23 06:16:15;;;;;;;19.77;5.38;;;;;;;6.57;100.00;102192.25;5054084;28;20049;-67
2024/01/23 06:19:06;;;;;;;21.33;5.18;;;;;;;6.57;100.00;102211.22;5053271;28;20423;-68
2024/01/23 06:21:54;;;;;;;20.58;5.10;;;;;;;6.59;100.00;102213.69;5057135;28;20171;-66
2024/01/23 06:25:03;;;;;;;23.60;5.45;;;;;;;6.56;100.00;102216.81;5058528;28;20051;-68
2024/01/23 06:27:51;;;;;;;15.40;5.05;;;;;;;6.56;100.00;102230.38;5059990;28;20123;-67
2024/01/23 06:30:39;;;;;;;24.15;6.20;;;;;;;6.54;100.00;102227.88;5055074;28;20055;-67
2024/01/23 06:33:35;;;;;;;21.45;5.35;;;;;;;6.56;100.00;102235.78;5053939;28;20051;-67
2024/01/23 06:36:23;;;;;;;21.40;5.00;;;;;;;6.54;100.00;102240.56;5088206;28;20044;-67
2024/01/23 06:39:11;;;;;;;25.30;6.55;;;;;;;6.51;100.00;102246.41;4341318;28;10000532;-68
2024/01/23 06:41:59;;;;;;;28.10;6.00;;;;;;;6.44;100.00;102248.25;5035855;28;20056;-69
2024/01/23 06:44:48;;;;;;;26.08;5.78;;;;;;;6.38;100.00;102256.16;5054407;28;20586;-68
2024/01/23 06:47:36;;;;;;;25.50;5.95;;;;;;;6.34;100.00;102254.91;5035717;28;20206;-67
2024/01/23 06:50:26;;;;;;;28.15;6.55;;;;;;;6.33;100.00;102253.25;5054486;28;20055;-69
2024/01/23 06:53:14;;;;;;;25.70;5.65;;;;;;;6.37;100.00;102265.34;5056099;28;20063;-67
2024/01/23 06:56:04;;;;;;;29.08;5.72;;;;;;;6.40;100.00;102264.91;5070352;28;20083;-68
2024/01/23 06:58:52;;;;;;;25.20;5.85;;;;;;;6.42;100.00;102280.13;5056079;28;20048;-70
2024/01/23 07:01:40;;;;;;;23.73;5.65;;;;;;;6.42;100.00;102286.34;5027362;28;20072;-68
2024/01/23 07:04:28;;;;;;;22.58;5.65;;;;;;;6.44;100.00;102297.00;5054935;28;20047;-68
2024/01/23 07:07:18;;;;;;;24.80;5.38;;;;;;;6.39;100.00;102294.88;5040440;28;20048;-68
2024/01/23 07:10:06;;;;;;;20.13;4.97;;;;;;;6.36;100.00;102284.47;5055326;28;20060;-67
2024/01/23 07:12:55;;;;;;;21.67;5.97;;;;;;;6.37;100.00;102287.00;5040720;28;20469;-69
2024/01/23 07:15:43;;;;;;;24.23;5.80;;;;;;;6.38;100.00;102288.66;5048604;28;20052;-68
2024/01/23 07:18:31;;;;;;;18.23;5.30;;;;;;;6.37;100.00;102287.00;5036718;28;20060;-67
2024/01/23 07:21:20;;;;;;;21.73;5.57;;;;;;;6.38;100.00;102283.25;5043548;28;20103;-68
2024/01/23 07:24:08;;;;;;;25.50;5.70;;;;;;;6.35;100.00;102283.66;5067809;28;20059;-68
2024/01/23 07:26:56;;;;;;;21.92;5.28;;;;;;;6.35;100.00;102291.78;5067955;28;20048;-67
2024/01/23 07:29:44;;;;;;;21.05;5.35;;;;;;;6.41;100.00;102292.81;5053372;28;20131;-67
2024/01/23 07:32:32;;;;;;;22.45;6.60;;;;;;;6.36;100.00;102306.97;5047527;28;20056;-70
2024/01/23 07:35:20;;;;;;;26.92;6.05;;;;;;;6.32;100.00;102305.69;5040249;28;20156;-70
2024/01/23 07:38:11;;;;;;;26.70;6.43;;;;;;;6.31;100.00;102314.88;5037385;28;20111;-67
2024/01/23 07:40:59;;;;;;;21.38;5.75;;;;;;;6.28;100.00;102320.69;5049611;28;20585;-67
2024/01/23 07:43:47;;;;;;;25.13;6.72;;;;;;;6.27;100.00;102319.00;5038392;28;20037;-67
2024/01/23 07:46:35;;;;;;;25.92;5.57;;;;;;;6.25;100.00;102310.25;5037028;28;20080;-66
2024/01/23 07:49:23;;;;;;;23.52;5.65;;;;;;;6.29;100.00;102322.34;5052050;28;20049;-66
2024/01/23 07:52:14;;;;;;;25.85;6.57;;;;;;;6.28;100.00;102317.97;5050467;28;20503;-66
2024/01/23 07:55:03;;;;;;;32.08;6.82;;;;;;;6.30;100.00;102320.47;5056858;28;20155;-67
2024/01/23 07:57:51;;;;;;;25.90;6.20;;;;;;;6.30;100.00;102324.03;5071417;28;20040;-67
2024/01/23 08:00:40;;;;;;;27.85;6.60;;;;;;;6.31;100.00;102335.69;5071187;28;20053;-67
2024/01/23 08:03:29;;;;;;;23.23;5.95;;;;;;;6.30;100.00;102348.41;5072044;28;20559;-66
2024/01/23 08:06:17;;;;;;;21.20;5.57;;;;;;;6.32;100.00;102338.19;5079632;28;20044;-67
2024/01/23 08:09:06;;;;;;;27.17;6.10;;;;;;;6.33;100.00;102348.00;5094815;28;20050;-68
2024/01/23 08:11:54;;;;;;;26.15;5.35;;;;;;;6.31;100.00;102358.19;5065523;28;20139;-68
2024/01/23 08:14:42;;;;;;;21.65;5.93;;;;;;;6.30;100.00;102372.75;5092501;28;20169;-67
2024/01/23 08:17:30;;;;;;;27.55;6.13;;;;;;;6.31;100.00;102374.41;5037613;28;20098;-68
2024/01/23 08:20:18;;;;;;;25.30;6.32;;;;;;;6.35;100.00;102386.53;5066916;28;20045;-67
2024/01/23 08:23:06;;;;;;;21.23;6.28;;;;;;;6.38;100.00;102380.69;5078155;28;20083;-67
2024/01/23 08:25:54;;;;;;;25.20;6.07;;;;;;;6.40;100.00;102391.34;5067185;28;20044;-68
2024/01/23 08:28:42;;;;;;;21.25;6.00;;;;;;;6.40;100.00;102394.03;5066628;28;20087;-66
2024/01/23 08:31:30;;;;;;;23.40;6.28;;;;;;;6.37;100.00;102398.00;5075747;28;20044;-66
2024/01/23 08:34:18;;;;;;;21.98;5.43;;;;;;;6.38;100.00;102405.06;5075906;28;20071;-69
2024/01/23 08:37:07;;;;;;;24.90;6.03;;;;;;;6.39;100.00;102409.44;5093240;28;20488;-67
2024/01/23 08:39:55;;;;;;;22.10;6.32;;;;;;;6.42;100.00;102418.19;5103689;28;20036;-67
2024/01/23 08:42:43;;;;;;;26.15;7.20;;;;;;;6.45;100.00;102413.22;5057839;28;20041;-69
2024/01/23 08:45:31;;;;;;;26.92;7.05;;;;;;;6.47;100.00;102423.84;5080330;28;20048;-67
2024/01/23 08:48:22;;;;;;;22.13;6.32;;;;;;;6.44;100.00;102421.53;5047776;28;20047;-68
2024/01/23 08:51:11;;;;;;;24.40;6.93;;;;;;;6.41;100.00;102422.78;5061791;28;20492;-68
2024/01/23 08:54:00;;;;;;;23.80;6.10;;;;;;;6.39;100.00;102431.09;5075897;28;20138;-68
2024/01/23 08:56:51;;;;;;;27.17;7.15;;;;;;;6.46;100.00;102428.41;5061004;28;20446;-67
2024/01/23 08:59:40;;;;;;;20.67;6.40;;;;;;;6.52;100.00;102434.91;5077165;28;20091;-67
2024/01/23 09:02:28;;;;;;;27.95;6.30;;;;;;;6.47;100.00;102426.53;5048105;28;20057;-68
2024/01/23 09:05:16;;;;;;;21.65;5.95;;;;;;;6.44;100.00;102430.50;5045883;28;20044;-68
2024/01/23 09:08:04;;;;;;;21.67;5.88;;;;;;;6.42;100.00;102437.13;5076785;28;20047;-67
2024/01/23 09:10:52;;;;;;;23.48;6.50;;;;;;;6.40;100.00;102432.78;5047370;28;20436;-68
2024/01/23 09:13:41;;;;;;;24.90;7.28;;;;;;;6.37;100.00;102449.44;5074757;28;20174;-67
2024/01/23 09:16:29;;;;;;;22.55;5.78;;;;;;;6.39;100.00;102447.31;5075426;28;20051;-68
2024/01/23 09:19:17;;;;;;;22.60;5.93;;;;;;;6.41;100.00;102430.91;5041401;28;20174;-68
2024/01/23 09:22:05;;;;;;;26.38;6.65;;;;;;;6.44;100.00;102426.94;5052592;28;20525;-68
2024/01/23 09:24:53;;;;;;;22.73;6.10;;;;;;;6.46;100.00;102419.47;5062653;28;20048;-67
2024/01/23 09:27:41;;;;;;;20.90;5.60;;;;;;;6.46;100.00;102416.75;5082052;28;20492;-68
2024/01/23 09:30:39;;;;;;;23.98;6.53;;;;;;;6.50;100.00;102426.16;5065324;28;20159;-66
2024/01/23 09:33:27;;;;;;;23.20;7.30;;;;;;;6.53;100.00;102428.47;5077496;28;20051;-67
2024/01/23 09:36:15;;;;;;;27.05;6.40;;;;;;;6.57;100.00;102433.28;5093428;28;20435;-67
2024/01/23 09:39:04;;;;;;;23.13;6.32;;;;;;;6.55;100.00;102434.50;5081719;28;20058;-67
2024/01/23 09:41:54;;;;;;;25.05;6.63;;;;;;;6.58;100.00;102434.09;5063426;28;20044;-67
2024/01/23 09:44:42;;;;;;;21.13;5.90;;;;;;;6.58;100.00;102434.94;5040256;28;20056;-68
2024/01/23 09:47:30;;;;;;;22.67;6.18;;;;;;;6.57;100.00;102441.41;5074715;28;20049;-67
2024/01/23 09:50:18;;;;;;;25.10;5.93;;;;;;;6.57;100.00;102443.28;5074894;28;20413;-67
2024/01/23 09:53:08;;;;;;;21.65;5.82;;;;;;;6.61;100.00;102442.66;5073788;28;20428;-67
2024/01/23 09:55:56;;;;;;;30.10;6.63;;;;;;;6.67;100.00;102442.91;5072944;28;20045;-68
2024/01/23 09:58:44;;;;;;;23.60;7.10;;;;;;;6.70;100.00;102443.31;5060076;28;20052;-68
2024/01/23 10:01:36;;;;;;;27.75;7.13;;;;;;;6.67;100.00;102438.31;5046937;28;20104;-68
2024/01/23 10:04:24;;;;;;;21.23;5.90;;;;;;;6.68;100.00;102442.69;5049282;28;20046;-67
2024/01/23 10:07:12;;;;;;;23.27;6.72;;;;;;;6.71;100.00;102450.41;5057719;28;20548;-68
2024/01/23 10:10:05;;;;;;;22.33;5.82;;;;;;;6.72;100.00;102453.97;5059420;28;20520;-68
2024/01/23 10:12:53;;;;;;;22.60;6.47;;;;;;;6.75;100.00;102459.78;5059661;28;20045;-67
2024/01/23 10:15:41;;;;;;;24.70;6.40;;;;;;;6.75;100.00;102462.50;5058084;28;20036;-68
2024/01/23 10:18:29;;;;;;;23.23;6.18;;;;;;;6.77;100.00;102456.91;5075242;28;20049;-67
2024/01/23 10:21:24;;;;;;;30.30;6.50;;;;;;;6.76;100.00;102461.47;5060734;28;20044;-69
2024/01/23 10:24:12;;;;;;;23.70;6.68;;;;;;;6.81;100.00;102464.41;5080038;28;20063;-67
2024/01/23 10:27:00;;;;;;;31.20;7.88;;;;;;;6.88;100.00;102455.47;5068575;28;20048;-68
2024/01/23 10:29:50;;;;;;;24.95;6.47;;;;;;;6.89;100.00;102446.31;5071420;28;20143;-69
2024/01/23 10:32:38;;;;;;;25.73;6.53;;;;;;;6.89;100.00;102449.84;5092826;28;20170;-68
2024/01/23 10:35:27;;;;;;;22.92;6.25;;;;;;;6.86;100.00;102452.16;5058493;28;20048;-66
2024/01/23 10:38:16;;;;;;;27.17;6.35;;;;;;;6.83;100.00;102446.09;5080320;28;20635;-67
2024/01/23 10:41:05;;;;;;;23.92;5.65;;;;;;;6.86;100.00;102458.38;5091403;28;20123;-67
2024/01/23 10:43:53;;;;;;;24.02;6.47;;;;;;;6.90;100.00;102458.81;5035913;28;20127;-67
2024/01/23 10:46:42;;;;;;;25.13;6.40;;;;;;;7.03;100.00;102453.44;5074642;28;20072;-69
2024/01/23 10:49:30;;;;;;;22.50;6.35;;;;;;;7.06;100.00;102454.91;5060267;28;20592;-69
2024/01/23 10:52:19;;;;;;;18.23;5.95;;;;;;;7.03;100.00;102458.88;5074775;28;20044;-68
2024/01/23 10:55:09;;;;;;;26.00;6.43;;;;;;;7.07;100.00;102443.00;5055627;28;20037;-68
2024/01/23 10:58:02;;;;;;;25.85;6.40;;;;;;;7.06;100.00;102444.91;5064530;28;20040;-67
2024/01/23 11:00:50;;;;;;;20.25;5.57;;;;;;;7.07;100.00;102443.00;5082428;28;20052;-67
2024/01/23 11:03:39;;;;;;;30.02;6.85;;;;;;;7.11;100.00;102452.41;5091857;28;20040;-67
2024/01/23 11:06:31;;;;;;;29.27;6.88;;;;;;;7.15;100.00;102445.56;5051894;28;20049;-69
2024/01/23 11:09:41;;;;;;;22.80;6.18;;;;;;;7.16;100.00;102430.94;5054345;28;20041;-67
2024/01/23 11:12:46;;;;;;;29.58;7.78;;;;;;;7.24;100.00;102433.47;4370264;28;10000249;-69
2024/01/23 11:15:35;;;;;;;25.60;6.53;;;;;;;7.25;100.00;102427.00;5037341;28;20047;-68
2024/01/23 11:18:32;;;;;;;23.95;6.00;;;;;;;7.28;100.00;102417.63;5070422;28;20059;-67
2024/01/23 11:21:24;;;;;;;21.42;7.15;;;;;;;7.32;100.00;102398.03;5042488;28;20212;-67
2024/01/23 11:24:12;;;;;;;26.80;6.70;;;;;;;7.28;100.00;102396.75;5059848;28;20496;-67
2024/01/23 11:27:05;;;;;;;22.60;6.15;;;;;;;7.34;100.00;102385.09;5084899;28;20048;-68
2024/01/23 11:29:56;;;;;;;24.70;5.82;;;;;;;7.33;100.00;102382.59;5038823;28;20419;-68
2024/01/23 11:32:44;;;;;;;31.05;7.75;;;;;;;7.40;100.00;102365.28;5058872;28;20550;-69
2024/01/23 11:36:10;;;;;;;25.17;6.03;;;;;;;7.33;100.00;102383.41;5076036;28;20140;-67
2024/01/23 11:38:58;;;;;;;;;;;;;;;7.28;100.00;102396.75;5044981;28;20045;-67
2024/01/23 11:41:48;;;;;;;25.20;5.72;;;;;;;7.29;100.00;102381.31;5049690;28;19925;-67
2024/01/23 11:44:36;;;;;;;25.40;5.95;;;;;;;7.33;100.00;102377.16;5049638;28;20421;-68
2024/01/23 11:47:26;;;;;;;25.63;5.88;;;;;;;7.35;100.00;102364.25;5052301;28;20059;-66
2024/01/23 11:50:14;;;;;;;32.20;7.32;;;;;;;7.41;100.00;102363.41;5054341;28;20063;-67
2024/01/23 11:53:03;;;;;;;28.30;6.68;;;;;;;7.42;100.00;102357.75;5069702;28;20045;-67
2024/01/23 11:55:55;;;;;;;17.65;5.72;;;;;;;7.47;100.00;102357.13;5068316;28;20497;-67
2024/01/23 11:58:43;;;;;;;22.40;7.07;;;;;;;7.56;100.00;102361.31;5050169;28;20037;-69
2024/01/23 12:01:32;;;;;;;22.63;6.05;;;;;;;7.60;100.00;102345.44;5037052;28;20056;-70
2024/01/23 12:04:20;;;;;;;23.15;5.85;;;;;;;7.59;100.00;102365.47;5076084;28;20047;-69
2024/01/23 12:07:08;;;;;;;21.25;6.10;;;;;;;7.67;100.00;102352.53;5074747;28;20032;-71
2024/01/23 12:09:56;;;;;;;26.63;6.68;;;;;;;7.65;100.00;102338.34;5062297;28;20033;-69
2024/01/23 12:12:44;;;;;;;26.02;7.05;;;;;;;7.76;100.00;102341.47;5054075;28;20123;-68
2024/01/23 12:15:32;;;;;;;21.80;5.60;;;;;;;7.68;100.00;102337.09;5093782;28;20041;-67
2024/01/23 12:18:24;;;;;;;20.48;5.65;;;;;;;7.73;100.00;102325.63;5081909;28;20065;-68
2024/01/23 12:21:13;;;;;;;29.13;7.38;;;;;;;7.81;100.00;102325.38;5064089;28;20170;-69
2024/01/23 12:24:01;;;;;;;21.00;5.40;;;;;;;7.74;100.00;102302.84;5075383;28;20052;-69
2024/01/23 12:27:05;;;;;;;19.30;6.15;;;;;;;7.86;100.00;102295.72;5052742;28;20409;-69
2024/01/23 12:29:53;;;;;;;21.20;6.35;;;;;;;7.81;100.00;102298.25;5046698;28;20170;-68
2024/01/23 12:32:47;;;;;;;22.05;6.53;;;;;;;7.99;100.00;102290.25;5077578;28;20508;-69
2024/01/23 12:35:38;;;;;;;20.15;6.13;;;;;;;7.99;100.00;102290.25;5075831;28;20037;-68
2024/01/23 12:38:26;;;;;;;18.02;5.68;;;;;;;8.17;100.00;102294.16;5067930;28;20036;-69
2024/01/23 12:41:15;;;;;;;16.17;5.75;;;;;;;8.32;100.00;102289.25;5075737;28;20044;-68
2024/01/23 12:44:03;;;;;;;19.20;5.97;;;;;;;8.37;100.00;102292.19;5090637;28;20044;-68
2024/01/23 12:46:51;;;;;;;27.42;6.72;;;;;;;8.39;100.00;102292.78;5079033;28;20055;-69
2024/01/23 12:49:39;;;;;;;27.50;6.00;;;;;;;8.26;100.00;102282.81;5080783;28;20072;-67
2024/01/23 12:52:28;;;;;;;18.58;5.70;;;;;;;8.20;100.00;102275.56;5060599;28;20127;-67
2024/01/23 12:55:17;;;;;;;16.88;5.10;;;;;;;8.15;100.00;102263.66;5052735;28;20156;-69
2024/01/23 12:58:07;;;;;;;22.40;6.30;;;;;;;8.13;100.00;102271.19;5028751;28;20457;-67